sensor_id;sensor_type;location;lat;lon;timestamp;pressure;altitude;pressure_sealevel;temperature;humidity
62895;BME280;49204;44.916;37.998;2023-01-26T00:01:54;102405.72;;;-5.06;69.88
62895;BME280;49204;44.916;37.998;2023-01-26T00:04:22;102406.67;;;-5.04;69.65
62895;BME280;49204;44.916;37.998;2023-01-26T00:06:51;102400.59;;;-4.99;69.52
62895;BME280;49204;44.916;37.998;2023-01-26T00:09:20;102400.59;;;-4.97;69.00
62895;BME280;49204;44.916;37.998;2023-01-26T00:11:49;102408.30;;;-4.97;69.17
62895;BME280;49204;44.916;37.998;2023-01-26T00:14:18;102402.34;;;-4.96;69.14
62895;BME280;49204;44.916;37.998;2023-01-26T00:16:46;102408.71;;;-4.98;69.15
62895;BME280;49204;44.916;37.998;2023-01-26T00:19:15;102401.16;;;-5.03;69.32
62895;BME280;49204;44.916;37.998;2023-01-26T00:21:44;102408.29;;;-5.06;69.18
62895;BME280;49204;44.916;37.998;2023-01-26T00:24:12;102399.63;;;-5.08;69.15
62895;BME280;49204;44.916;37.998;2023-01-26T00:26:41;102399.63;;;-5.08;69.15
62895;BME280;49204;44.916;37.998;2023-01-26T00:29:09;102399.95;;;-5.10;69.26
62895;BME280;49204;44.916;37.998;2023-01-26T00:31:38;102402.52;;;-5.10;69.18
62895;BME280;49204;44.916;37.998;2023-01-26T00:34:07;102406.70;;;-5.12;69.07
62895;BME280;49204;44.916;37.998;2023-01-26T00:36:35;102400.61;;;-5.14;69.08
62895;BME280;49204;44.916;37.998;2023-01-26T00:39:04;102403.17;;;-5.14;69.06
62895;BME280;49204;44.916;37.998;2023-01-26T00:41:34;102405.41;;;-5.12;69.00
62895;BME280;49204;44.916;37.998;2023-01-26T00:44:21;102394.51;;;-5.16;68.86
62895;BME280;49204;44.916;37.998;2023-01-26T00:46:49;102394.51;;;-5.16;68.86
62895;BME280;49204;44.916;37.998;2023-01-26T00:49:18;102401.06;;;-5.13;68.69
62895;BME280;49204;44.916;37.998;2023-01-26T00:51:47;102399.32;;;-5.14;68.51
62895;BME280;49204;44.916;37.998;2023-01-26T00:54:15;102399.32;;;-5.14;68.53
62895;BME280;49204;44.916;37.998;2023-01-26T00:56:45;102396.50;;;-5.18;68.49
62895;BME280;49204;44.916;37.998;2023-01-26T00:59:14;102396.50;;;-5.18;68.75
62895;BME280;49204;44.916;37.998;2023-01-26T01:01:44;102394.67;;;-5.21;68.56
62895;BME280;49204;44.916;37.998;2023-01-26T01:04:14;102389.03;;;-5.22;68.55
62895;BME280;49204;44.916;37.998;2023-01-26T01:06:43;102379.41;;;-5.26;68.55
62895;BME280;49204;44.916;37.998;2023-01-26T01:09:12;102383.27;;;-5.24;68.82
62895;BME280;49204;44.916;37.998;2023-01-26T01:11:40;102383.27;;;-5.26;68.94
62895;BME280;49204;44.916;37.998;2023-01-26T01:14:11;102388.90;;;-5.25;68.78
62895;BME280;49204;44.916;37.998;2023-01-26T01:16:40;102382.30;;;-5.28;68.69
62895;BME280;49204;44.916;37.998;2023-01-26T01:19:14;102379.89;;;-5.33;68.84
62895;BME280;49204;44.916;37.998;2023-01-26T01:21:42;102372.75;;;-5.39;68.86
62895;BME280;49204;44.916;37.998;2023-01-26T01:24:12;102374.36;;;-5.41;68.79
62895;BME280;49204;44.916;37.998;2023-01-26T01:26:40;102369.33;;;-5.48;68.76
62895;BME280;49204;44.916;37.998;2023-01-26T01:29:16;102370.91;;;-5.50;68.71
62895;BME280;49204;44.916;37.998;2023-01-26T01:31:42;102373.09;;;-5.49;68.62
62895;BME280;49204;44.916;37.998;2023-01-26T01:34:10;102375.58;;;-5.51;68.60
62895;BME280;49204;44.916;37.998;2023-01-26T01:36:40;102375.40;;;-5.54;68.61
62895;BME280;49204;44.916;37.998;2023-01-26T01:39:08;102380.30;;;-5.58;68.70
62895;BME280;49204;44.916;37.998;2023-01-26T01:41:37;102375.50;;;-5.60;68.70
62895;BME280;49204;44.916;37.998;2023-01-26T01:44:23;102374.59;;;-5.61;68.64
62895;BME280;49204;44.916;37.998;2023-01-26T01:46:59;102370.52;;;-5.66;68.62
62895;BME280;49204;44.916;37.998;2023-01-26T01:49:31;102374.66;;;-5.76;68.68
62895;BME280;49204;44.916;37.998;2023-01-26T01:52:25;102380.34;;;-5.90;68.77
62895;BME280;49204;44.916;37.998;2023-01-26T01:55:00;102371.59;;;-5.93;68.83
62895;BME280;49204;44.916;37.998;2023-01-26T01:57:30;102376.63;;;-5.95;68.83
62895;BME280;49204;44.916;37.998;2023-01-26T02:00:08;102368.94;;;-5.95;68.99
62895;BME280;49204;44.916;37.998;2023-01-26T02:02:34;102369.03;;;-5.93;68.91
62895;BME280;49204;44.916;37.998;2023-01-26T02:05:25;102364.36;;;-5.92;68.74
62895;BME280;49204;44.916;37.998;2023-01-26T02:07:48;102371.97;;;-5.94;68.93
62895;BME280;49204;44.916;37.998;2023-01-26T02:10:19;102368.80;;;-5.90;68.81
62895;BME280;49204;44.916;37.998;2023-01-26T02:12:50;102370.55;;;-5.89;68.77
62895;BME280;49204;44.916;37.998;2023-01-26T02:15:19;102366.55;;;-5.92;69.06
62895;BME280;49204;44.916;37.998;2023-01-26T02:17:50;102364.77;;;-5.93;69.15
62895;BME280;49204;44.916;37.998;2023-01-26T02:20:25;102362.30;;;-5.91;69.00
62895;BME280;49204;44.916;37.998;2023-01-26T02:23:11;102370.95;;;-5.89;68.90
62895;BME280;49204;44.916;37.998;2023-01-26T02:28:25;102375.85;;;-5.86;68.76
62895;BME280;49204;44.916;37.998;2023-01-26T02:30:55;102371.04;;;-5.88;68.84
62895;BME280;49204;44.916;37.998;2023-01-26T02:33:27;102380.34;;;-5.90;68.91
62895;BME280;49204;44.916;37.998;2023-01-26T02:35:58;102384.51;;;-5.92;69.12
62895;BME280;49204;44.916;37.998;2023-01-26T02:38:30;102386.43;;;-5.96;69.23
62895;BME280;49204;44.916;37.998;2023-01-26T02:41:05;102390.91;;;-6.00;69.29
62895;BME280;49204;44.916;37.998;2023-01-26T02:43:35;102389.45;;;-6.03;69.27
62895;BME280;49204;44.916;37.998;2023-01-26T02:46:04;102391.05;;;-6.05;69.41
62895;BME280;49204;44.916;37.998;2023-01-26T02:48:34;102395.22;;;-6.07;69.35
62895;BME280;49204;44.916;37.998;2023-01-26T02:51:21;102391.22;;;-6.10;69.27
62895;BME280;49204;44.916;37.998;2023-01-26T02:53:50;102387.52;;;-6.15;69.26
62895;BME280;49204;44.916;37.998;2023-01-26T02:56:19;102389.02;;;-6.19;69.30
62895;BME280;49204;44.916;37.998;2023-01-26T02:58:48;102381.52;;;-6.16;69.30
62895;BME280;49204;44.916;37.998;2023-01-26T03:01:16;102386.88;;;-6.11;69.41
62895;BME280;49204;44.916;37.998;2023-01-26T03:03:47;102394.44;;;-6.06;69.50
62895;BME280;49204;44.916;37.998;2023-01-26T03:06:16;102396.41;;;-6.09;69.49
62895;BME280;49204;44.916;37.998;2023-01-26T03:08:44;102389.94;;;-6.10;69.65
62895;BME280;49204;44.916;37.998;2023-01-26T03:11:13;102390.09;;;-6.07;69.62
62895;BME280;49204;44.916;37.998;2023-01-26T03:13:42;102389.95;;;-6.02;69.59
62895;BME280;49204;44.916;37.998;2023-01-26T03:16:10;102384.19;;;-5.98;69.62
62895;BME280;49204;44.916;37.998;2023-01-26T03:18:41;102384.91;;;-6.00;69.87
62895;BME280;49204;44.916;37.998;2023-01-26T03:21:27;102394.30;;;-6.01;69.84
62895;BME280;49204;44.916;37.998;2023-01-26T03:24:14;102393.39;;;-6.02;69.76
62895;BME280;49204;44.916;37.998;2023-01-26T03:27:02;102389.95;;;-6.02;69.79
62895;BME280;49204;44.916;37.998;2023-01-26T03:29:49;102390.73;;;-6.03;69.83
62895;BME280;49204;44.916;37.998;2023-01-26T03:32:18;102387.70;;;-6.04;69.61
62895;BME280;49204;44.916;37.998;2023-01-26T03:34:47;102385.61;;;-6.03;69.52
62895;BME280;49204;44.916;37.998;2023-01-26T03:37:15;102391.73;;;-6.01;69.41
62895;BME280;49204;44.916;37.998;2023-01-26T03:39:49;102383.80;;;-5.97;69.33
62895;BME280;49204;44.916;37.998;2023-01-26T03:42:36;102380.02;;;-5.96;69.37
62895;BME280;49204;44.916;37.998;2023-01-26T03:45:23;102378.87;;;-5.93;69.49
62895;BME280;49204;44.916;37.998;2023-01-26T03:48:11;102386.08;;;-5.94;69.84
62895;BME280;49204;44.916;37.998;2023-01-26T03:50:58;102382.58;;;-5.96;70.30
62895;BME280;49204;44.916;37.998;2023-01-26T03:53:45;102388.17;;;-5.95;70.44
62895;BME280;49204;44.916;37.998;2023-01-26T03:56:31;102392.48;;;-5.94;70.51
62895;BME280;49204;44.916;37.998;2023-01-26T03:59:03;102387.86;;;-5.93;70.29
62895;BME280;49204;44.916;37.998;2023-01-26T04:01:37;102387.86;;;-5.93;70.29
62895;BME280;49204;44.916;37.998;2023-01-26T04:04:07;102396.78;;;-5.86;70.17
62895;BME280;49204;44.916;37.998;2023-01-26T04:06:55;102399.91;;;-5.84;70.10
62895;BME280;49204;44.916;37.998;2023-01-26T04:09:43;102395.55;;;-5.85;70.12
62895;BME280;49204;44.916;37.998;2023-01-26T04:12:12;102402.29;;;-5.87;70.42
62895;BME280;49204;44.916;37.998;2023-01-26T04:14:49;102394.91;;;-5.89;70.55
62895;BME280;49204;44.916;37.998;2023-01-26T04:17:35;102405.91;;;-5.91;70.63
62895;BME280;49204;44.916;37.998;2023-01-26T04:20:21;102402.38;;;-5.93;70.82
62895;BME280;49204;44.916;37.998;2023-01-26T04:23:16;102403.56;;;-5.95;70.55
62895;BME280;49204;44.916;37.998;2023-01-26T04:25:39;102401.00;;;-5.95;70.46
62895;BME280;49204;44.916;37.998;2023-01-26T04:28:09;102403.92;;;-5.97;70.40
62895;BME280;49204;44.916;37.998;2023-01-26T04:30:38;102403.56;;;-5.95;70.33
62895;BME280;49204;44.916;37.998;2023-01-26T04:33:07;102399.72;;;-5.95;70.19
62895;BME280;49204;44.916;37.998;2023-01-26T04:35:36;102394.44;;;-5.98;70.37
62895;BME280;49204;44.916;37.998;2023-01-26T04:38:04;102404.03;;;-5.94;70.07
62895;BME280;49204;44.916;37.998;2023-01-26T04:40:33;102403.16;;;-5.94;70.10
62895;BME280;49204;44.916;37.998;2023-01-26T04:43:02;102405.20;;;-5.97;70.29
62895;BME280;49204;44.916;37.998;2023-01-26T04:45:31;102400.99;;;-6.03;70.54
62895;BME280;49204;44.916;37.998;2023-01-26T04:48:00;102416.05;;;-6.09;70.76
62895;BME280;49204;44.916;37.998;2023-01-26T04:50:29;102408.50;;;-6.14;70.87
62895;BME280;49204;44.916;37.998;2023-01-26T04:52:57;102399.70;;;-6.11;70.71
62895;BME280;49204;44.916;37.998;2023-01-26T04:55:26;102401.86;;;-6.11;70.81
62895;BME280;49204;44.916;37.998;2023-01-26T04:57:54;102408.86;;;-6.08;70.78
62895;BME280;49204;44.916;37.998;2023-01-26T05:00:24;102411.20;;;-6.05;70.67
62895;BME280;49204;44.916;37.998;2023-01-26T05:02:54;102408.41;;;-6.01;70.52
62895;BME280;49204;44.916;37.998;2023-01-26T05:05:22;102413.68;;;-5.98;70.41
62895;BME280;49204;44.916;37.998;2023-01-26T05:07:52;102411.44;;;-5.92;70.35
62895;BME280;49204;44.916;37.998;2023-01-26T05:10:21;102404.39;;;-5.88;70.40
62895;BME280;49204;44.916;37.998;2023-01-26T05:12:54;102413.55;;;-5.76;70.26
62895;BME280;49204;44.916;37.998;2023-01-26T05:15:30;102413.55;;;-5.76;70.26
62895;BME280;49204;44.916;37.998;2023-01-26T05:18:01;102413.41;;;-5.71;70.57
62895;BME280;49204;44.916;37.998;2023-01-26T05:20:37;102412.86;;;-5.66;70.67
62895;BME280;49204;44.916;37.998;2023-01-26T05:23:17;102421.46;;;-5.57;70.68
62895;BME280;49204;44.916;37.998;2023-01-26T05:26:03;102419.30;;;-5.49;70.73
62895;BME280;49204;44.916;37.998;2023-01-26T05:28:34;102425.97;;;-5.36;70.62
62895;BME280;49204;44.916;37.998;2023-01-26T05:31:04;102424.84;;;-5.25;70.57
62895;BME280;49204;44.916;37.998;2023-01-26T05:33:33;102423.23;;;-5.07;70.46
62895;BME280;49204;44.916;37.998;2023-01-26T05:36:05;102423.45;;;-4.86;70.52
62895;BME280;49204;44.916;37.998;2023-01-26T05:38:34;102424.42;;;-4.49;70.61
62895;BME280;49204;44.916;37.998;2023-01-26T05:41:05;102424.42;;;-4.49;70.61
62895;BME280;49204;44.916;37.998;2023-01-26T05:43:35;102428.02;;;-4.19;70.52
62895;BME280;49204;44.916;37.998;2023-01-26T05:46:12;102426.39;;;-3.81;70.37
62895;BME280;49204;44.916;37.998;2023-01-26T05:48:42;102431.54;;;-3.34;69.98
62895;BME280;49204;44.916;37.998;2023-01-26T05:51:11;102428.84;;;-2.98;69.72
62895;BME280;49204;44.916;37.998;2023-01-26T05:53:39;102435.09;;;-2.62;69.30
62895;BME280;49204;44.916;37.998;2023-01-26T05:56:12;102438.47;;;-2.33;68.69
62895;BME280;49204;44.916;37.998;2023-01-26T05:58:40;102444.52;;;-2.11;68.07
62895;BME280;49204;44.916;37.998;2023-01-26T06:01:13;102446.67;;;-1.89;67.49
62895;BME280;49204;44.916;37.998;2023-01-26T06:03:42;102451.63;;;-1.62;66.98
62895;BME280;49204;44.916;37.998;2023-01-26T06:06:11;102447.97;;;-1.44;65.84
62895;BME280;49204;44.916;37.998;2023-01-26T06:08:44;102438.22;;;-1.29;65.51
62895;BME280;49204;44.916;37.998;2023-01-26T06:11:26;102443.45;;;-0.79;65.52
62895;BME280;49204;44.916;37.998;2023-01-26T06:14:02;102440.03;;;-0.27;65.39
62895;BME280;49204;44.916;37.998;2023-01-26T06:16:31;102433.12;;;0.14;64.87
62895;BME280;49204;44.916;37.998;2023-01-26T06:19:00;102439.14;;;0.56;64.57
62895;BME280;49204;44.916;37.998;2023-01-26T06:21:29;102437.18;;;0.93;64.27
62895;BME280;49204;44.916;37.998;2023-01-26T06:23:58;102440.77;;;0.83;63.89
62895;BME280;49204;44.916;37.998;2023-01-26T06:26:28;102446.72;;;0.50;63.85
62895;BME280;49204;44.916;37.998;2023-01-26T06:28:57;102442.30;;;0.17;63.95
62895;BME280;49204;44.916;37.998;2023-01-26T06:31:28;102445.49;;;-0.05;64.26
62895;BME280;49204;44.916;37.998;2023-01-26T06:33:58;102444.59;;;-0.20;64.59
62895;BME280;49204;44.916;37.998;2023-01-26T06:36:27;102445.63;;;-0.27;64.85
62895;BME280;49204;44.916;37.998;2023-01-26T06:38:57;102442.73;;;-0.36;65.00
62895;BME280;49204;44.916;37.998;2023-01-26T06:41:26;102445.95;;;-0.44;65.12
62895;BME280;49204;44.916;37.998;2023-01-26T06:43:55;102452.30;;;-0.47;65.19
62895;BME280;49204;44.916;37.998;2023-01-26T06:46:24;102445.75;;;-0.50;65.30
62895;BME280;49204;44.916;37.998;2023-01-26T06:48:54;102447.86;;;-0.51;65.56
62895;BME280;49204;44.916;37.998;2023-01-26T06:54:11;102446.00;;;-0.42;65.70
62895;BME280;49204;44.916;37.998;2023-01-26T06:56:42;102451.44;;;-0.34;65.62
62895;BME280;49204;44.916;37.998;2023-01-26T06:59:30;102448.11;;;-0.30;65.55
62895;BME280;49204;44.916;37.998;2023-01-26T07:02:19;102451.17;;;-0.29;65.58
62895;BME280;49204;44.916;37.998;2023-01-26T07:04:49;102445.32;;;-0.24;65.90
62895;BME280;49204;44.916;37.998;2023-01-26T07:07:18;102446.97;;;-0.13;65.83
62895;BME280;49204;44.916;37.998;2023-01-26T07:09:46;102445.91;;;-0.05;65.84
62895;BME280;49204;44.916;37.998;2023-01-26T07:12:15;102448.90;;;-0.06;66.22
62895;BME280;49204;44.916;37.998;2023-01-26T07:14:44;102455.59;;;0.01;66.17
62895;BME280;49204;44.916;37.998;2023-01-26T07:17:13;102446.27;;;0.06;66.04
62895;BME280;49204;44.916;37.998;2023-01-26T07:19:41;102450.70;;;0.10;65.93
62895;BME280;49204;44.916;37.998;2023-01-26T07:22:10;102441.92;;;0.19;65.94
62895;BME280;49204;44.916;37.998;2023-01-26T07:24:40;102442.65;;;0.29;65.88
62895;BME280;49204;44.916;37.998;2023-01-26T07:27:09;102443.78;;;0.37;65.83
62895;BME280;49204;44.916;37.998;2023-01-26T07:29:37;102447.34;;;0.41;65.77
62895;BME280;49204;44.916;37.998;2023-01-26T07:32:06;102441.19;;;0.37;65.78
62895;BME280;49204;44.916;37.998;2023-01-26T07:34:34;102441.56;;;0.35;65.99
62895;BME280;49204;44.916;37.998;2023-01-26T07:37:03;102445.82;;;0.33;66.19
62895;BME280;49204;44.916;37.998;2023-01-26T07:39:32;102444.05;;;0.32;66.35
62895;BME280;49204;44.916;37.998;2023-01-26T07:42:00;102443.08;;;0.29;66.41
62895;BME280;49204;44.916;37.998;2023-01-26T07:44:34;102446.91;;;0.27;66.62
62895;BME280;49204;44.916;37.998;2023-01-26T07:47:02;102438.59;;;0.37;66.91
62895;BME280;49204;44.916;37.998;2023-01-26T07:49:31;102433.96;;;0.56;67.11
62895;BME280;49204;44.916;37.998;2023-01-26T07:52:00;102431.69;;;0.67;67.02
62895;BME280;49204;44.916;37.998;2023-01-26T07:54:28;102433.20;;;0.74;67.13
62895;BME280;49204;44.916;37.998;2023-01-26T07:56:57;102432.44;;;0.79;67.12
62895;BME280;49204;44.916;37.998;2023-01-26T07:59:26;102426.27;;;0.89;67.01
62895;BME280;49204;44.916;37.998;2023-01-26T08:01:54;102427.39;;;0.99;66.95
62895;BME280;49204;44.916;37.998;2023-01-26T08:04:23;102424.13;;;1.06;66.80
62895;BME280;49204;44.916;37.998;2023-01-26T08:06:52;102417.27;;;1.08;66.82
62895;BME280;49204;44.916;37.998;2023-01-26T08:09:20;102419.95;;;1.11;66.77
62895;BME280;49204;44.916;37.998;2023-01-26T08:11:49;102433.97;;;1.02;67.05
62895;BME280;49204;44.916;37.998;2023-01-26T08:14:18;102430.27;;;0.94;67.17
62895;BME280;49204;44.916;37.998;2023-01-26T08:16:46;102430.27;;;0.94;67.14
62895;BME280;49204;44.916;37.998;2023-01-26T08:19:15;102427.14;;;0.90;67.20
62895;BME280;49204;44.916;37.998;2023-01-26T08:21:44;102423.63;;;0.88;67.14
62895;BME280;49204;44.916;37.998;2023-01-26T08:24:12;102427.14;;;0.90;67.14
62895;BME280;49204;44.916;37.998;2023-01-26T08:26:41;102418.31;;;0.99;67.09
62895;BME280;49204;44.916;37.998;2023-01-26T08:29:10;102424.98;;;1.05;67.07
62895;BME280;49204;44.916;37.998;2023-01-26T08:31:38;102416.06;;;1.11;67.00
62895;BME280;49204;44.916;37.998;2023-01-26T08:34:07;102413.17;;;1.17;67.08
62895;BME280;49204;44.916;37.998;2023-01-26T08:36:37;102412.85;;;1.22;67.08
62895;BME280;49204;44.916;37.998;2023-01-26T08:39:06;102409.14;;;1.28;67.05
62895;BME280;49204;44.916;37.998;2023-01-26T08:41:34;102414.48;;;1.34;67.04
62895;BME280;49204;44.916;37.998;2023-01-26T08:44:03;102409.23;;;1.48;67.07
62895;BME280;49204;44.916;37.998;2023-01-26T08:46:32;102407.34;;;1.60;67.08
62895;BME280;49204;44.916;37.998;2023-01-26T08:49:01;102405.95;;;1.56;67.04
62895;BME280;49204;44.916;37.998;2023-01-26T08:51:30;102406.84;;;1.40;67.42
62895;BME280;49204;44.916;37.998;2023-01-26T08:53:59;102396.63;;;1.46;67.60
62895;BME280;49204;44.916;37.998;2023-01-26T08:56:27;102396.09;;;1.60;67.84
62895;BME280;49204;44.916;37.998;2023-01-26T08:58:56;102390.65;;;1.85;67.74
62895;BME280;49204;44.916;37.998;2023-01-26T09:01:24;102382.72;;;1.98;67.56
62895;BME280;49204;44.916;37.998;2023-01-26T09:03:53;102384.09;;;2.01;67.43
62895;BME280;49204;44.916;37.998;2023-01-26T09:06:22;102381.59;;;2.06;67.40
62895;BME280;49204;44.916;37.998;2023-01-26T09:08:51;102386.78;;;2.06;67.29
62895;BME280;49204;44.916;37.998;2023-01-26T09:11:20;102373.56;;;2.14;67.20
62895;BME280;49204;44.916;37.998;2023-01-26T09:13:51;102373.20;;;2.19;67.10
62895;BME280;49204;44.916;37.998;2023-01-26T09:16:22;102372.06;;;2.25;67.18
62895;BME280;49204;44.916;37.998;2023-01-26T09:18:52;102365.80;;;2.38;67.26
62895;BME280;49204;44.916;37.998;2023-01-26T09:21:21;102367.80;;;2.49;67.25
62895;BME280;49204;44.916;37.998;2023-01-26T09:23:51;102363.58;;;2.55;67.39
62895;BME280;49204;44.916;37.998;2023-01-26T09:26:20;102359.28;;;2.57;67.13
62895;BME280;49204;44.916;37.998;2023-01-26T09:28:52;102364.38;;;2.52;66.96
62895;BME280;49204;44.916;37.998;2023-01-26T09:31:20;102354.83;;;2.51;66.84
62895;BME280;49204;44.916;37.998;2023-01-26T09:33:49;102356.13;;;2.51;66.79
62895;BME280;49204;44.916;37.998;2023-01-26T09:36:19;102357.44;;;2.51;66.68
62895;BME280;49204;44.916;37.998;2023-01-26T09:38:47;102344.36;;;2.48;66.58
62895;BME280;49204;44.916;37.998;2023-01-26T09:41:21;102350.12;;;2.33;66.53
62895;BME280;49204;44.916;37.998;2023-01-26T09:43:57;102340.91;;;2.28;66.76
62895;BME280;49204;44.916;37.998;2023-01-26T09:49:18;102347.36;;;2.46;67.32
62895;BME280;49204;44.916;37.998;2023-01-26T09:52:09;102339.52;;;2.66;67.37
62895;BME280;49204;44.916;37.998;2023-01-26T09:54:36;102339.60;;;2.95;67.11
62895;BME280;49204;44.916;37.998;2023-01-26T09:57:19;102334.69;;;3.12;66.80
62895;BME280;49204;44.916;37.998;2023-01-26T09:59:50;102333.77;;;3.33;67.02
62895;BME280;49204;44.916;37.998;2023-01-26T10:05:28;102324.30;;;3.38;66.44
62895;BME280;49204;44.916;37.998;2023-01-26T10:07:57;102324.63;;;3.32;66.35
62895;BME280;49204;44.916;37.998;2023-01-26T10:10:35;102319.33;;;3.54;66.45
62895;BME280;49204;44.916;37.998;2023-01-26T10:13:04;102328.23;;;3.68;66.33
62895;BME280;49204;44.916;37.998;2023-01-26T10:15:37;102327.42;;;3.72;66.03
62895;BME280;49204;44.916;37.998;2023-01-26T10:18:11;102321.58;;;3.59;65.89
62895;BME280;49204;44.916;37.998;2023-01-26T10:20:50;102323.32;;;3.58;65.97
62895;BME280;49204;44.916;37.998;2023-01-26T10:23:26;102321.12;;;3.58;65.91
62895;BME280;49204;44.916;37.998;2023-01-26T10:25:50;102321.91;;;3.51;65.98
62895;BME280;49204;44.916;37.998;2023-01-26T10:28:32;102315.66;;;3.41;66.07
62895;BME280;49204;44.916;37.998;2023-01-26T10:31:07;102309.09;;;3.36;66.16
62895;BME280;49204;44.916;37.998;2023-01-26T10:33:36;102309.84;;;3.29;66.20
62895;BME280;49204;44.916;37.998;2023-01-26T10:36:06;102305.84;;;3.23;66.26
62895;BME280;49204;44.916;37.998;2023-01-26T10:38:37;102298.03;;;3.23;66.34
62895;BME280;49204;44.916;37.998;2023-01-26T10:43:56;102294.53;;;3.22;66.47
62895;BME280;49204;44.916;37.998;2023-01-26T10:46:33;102289.27;;;3.18;66.46
62895;BME280;49204;44.916;37.998;2023-01-26T10:51:43;102289.27;;;3.18;66.55
62895;BME280;49204;44.916;37.998;2023-01-26T10:54:24;102287.56;;;3.20;66.53
62895;BME280;49204;44.916;37.998;2023-01-26T10:59:36;102299.12;;;3.11;66.53
62895;BME280;49204;44.916;37.998;2023-01-26T11:05:12;102288.21;;;3.08;66.67
62895;BME280;49204;44.916;37.998;2023-01-26T11:07:43;102281.65;;;3.03;66.70
62895;BME280;49204;44.916;37.998;2023-01-26T11:10:19;102292.09;;;3.05;66.81
62895;BME280;49204;44.916;37.998;2023-01-26T11:12:49;102292.21;;;3.13;66.77
62895;BME280;49204;44.916;37.998;2023-01-26T11:15:25;102291.13;;;3.25;66.88
62895;BME280;49204;44.916;37.998;2023-01-26T11:17:58;102289.16;;;3.38;66.57
62895;BME280;49204;44.916;37.998;2023-01-26T11:23:43;102281.42;;;4.07;65.76
62895;BME280;49204;44.916;37.998;2023-01-26T11:26:24;102276.92;;;4.31;65.39
62895;BME280;49204;44.916;37.998;2023-01-26T11:31:48;102263.38;;;4.64;64.49
62895;BME280;49204;44.916;37.998;2023-01-26T11:34:31;102274.70;;;5.78;62.36
62895;BME280;49204;44.916;37.998;2023-01-26T11:39:40;102263.75;;;6.93;59.87
62895;BME280;49204;44.916;37.998;2023-01-26T11:50:27;102275.07;;;7.39;58.80
62895;BME280;49204;44.916;37.998;2023-01-26T11:58:48;102278.06;;;6.50;60.14
62895;BME280;49204;44.916;37.998;2023-01-26T12:01:28;102286.31;;;6.33;60.21
62895;BME280;49204;44.916;37.998;2023-01-26T12:03:57;102287.05;;;5.98;60.80
62895;BME280;49204;44.916;37.998;2023-01-26T12:06:40;102285.08;;;5.68;61.21
62895;BME280;49204;44.916;37.998;2023-01-26T12:12:09;102284.63;;;5.05;62.21
62895;BME280;49204;44.916;37.998;2023-01-26T12:14:45;102283.22;;;4.91;62.47
62895;BME280;49204;44.916;37.998;2023-01-26T12:17:23;102279.38;;;5.01;62.31
62895;BME280;49204;44.916;37.998;2023-01-26T12:20:02;102290.16;;;4.90;62.32
62895;BME280;49204;44.916;37.998;2023-01-26T12:22:34;102282.64;;;4.76;62.64
62895;BME280;49204;44.916;37.998;2023-01-26T12:28:01;102280.84;;;4.72;63.12
62895;BME280;49204;44.916;37.998;2023-01-26T12:30:54;102278.81;;;4.85;62.99
62895;BME280;49204;44.916;37.998;2023-01-26T12:33:22;102282.74;;;4.88;62.97
62895;BME280;49204;44.916;37.998;2023-01-26T12:38:35;102284.00;;;4.82;62.75
62895;BME280;49204;44.916;37.998;2023-01-26T12:46:27;102282.69;;;4.82;62.74
62895;BME280;49204;44.916;37.998;2023-01-26T12:49:00;102281.34;;;4.79;63.00
62895;BME280;49204;44.916;37.998;2023-01-26T12:51:40;102284.23;;;4.61;63.10
62895;BME280;49204;44.916;37.998;2023-01-26T12:57:04;102284.72;;;4.27;63.60
62895;BME280;49204;44.916;37.998;2023-01-26T12:59:36;102284.85;;;4.03;63.84
62895;BME280;49204;44.916;37.998;2023-01-26T13:04:43;102284.89;;;3.73;64.21
62895;BME280;49204;44.916;37.998;2023-01-26T13:07:35;102285.20;;;3.63;64.42
62895;BME280;49204;44.916;37.998;2023-01-26T13:12:50;102283.65;;;3.48;64.99
62895;BME280;49204;44.916;37.998;2023-01-26T13:15:31;102286.95;;;3.36;64.99
62895;BME280;49204;44.916;37.998;2023-01-26T13:18:00;102284.55;;;3.22;65.11
62895;BME280;49204;44.916;37.998;2023-01-26T13:20:45;102281.70;;;3.06;65.30
62895;BME280;49204;44.916;37.998;2023-01-26T13:23:36;102294.16;;;2.99;65.26
62895;BME280;49204;44.916;37.998;2023-01-26T13:26:24;102294.84;;;2.89;65.48
62895;BME280;49204;44.916;37.998;2023-01-26T13:29:21;102290.84;;;2.83;65.51
62895;BME280;49204;44.916;37.998;2023-01-26T13:31:31;102289.77;;;2.72;65.62
62895;BME280;49204;44.916;37.998;2023-01-26T13:34:06;102295.64;;;2.61;65.71
62895;BME280;49204;44.916;37.998;2023-01-26T13:36:34;102287.95;;;2.44;65.92
62895;BME280;49204;44.916;37.998;2023-01-26T13:39:35;102285.61;;;2.36;66.09
62895;BME280;49204;44.916;37.998;2023-01-26T13:41:59;102282.39;;;2.25;66.22
62895;BME280;49204;44.916;37.998;2023-01-26T13:44:40;102285.70;;;2.18;66.26
62895;BME280;49204;44.916;37.998;2023-01-26T13:47:11;102281.27;;;2.12;66.36
62895;BME280;49204;44.916;37.998;2023-01-26T13:49:42;102287.10;;;2.02;66.52
62895;BME280;49204;44.916;37.998;2023-01-26T13:54:46;102289.81;;;1.86;66.64
62895;BME280;49204;44.916;37.998;2023-01-26T13:57:29;102280.52;;;1.77;66.67
62895;BME280;49204;44.916;37.998;2023-01-26T13:59:56;102286.34;;;1.67;66.85
62895;BME280;49204;44.916;37.998;2023-01-26T14:02:32;102295.70;;;1.60;67.00
62895;BME280;49204;44.916;37.998;2023-01-26T14:05:01;102293.41;;;1.53;67.12
62895;BME280;49204;44.916;37.998;2023-01-26T14:07:43;102291.16;;;1.50;67.08
62895;BME280;49204;44.916;37.998;2023-01-26T14:10:16;102293.63;;;1.45;67.17
62895;BME280;49204;44.916;37.998;2023-01-26T14:12:47;102297.91;;;1.43;67.16
62895;BME280;49204;44.916;37.998;2023-01-26T14:15:28;102293.94;;;1.40;67.18
62895;BME280;49204;44.916;37.998;2023-01-26T14:18:03;102300.80;;;1.37;67.18
62895;BME280;49204;44.916;37.998;2023-01-26T14:20:37;102295.01;;;1.31;67.26
62895;BME280;49204;44.916;37.998;2023-01-26T14:23:17;102285.41;;;1.27;67.42